aviador You're here:

KRKR Decoded Metar

POTEAU (R KERR) in OK, USA
Report Time2017-06-24 17:01:00
UTC Time2017-06-24 17:21:20
Flight Rules vfr VFR
Wind360° at 03 kt
W.Decomp.*RWY 36: 3.0 kt HW 0.2 kt LCW
Visibility9999 m
Phenomena:N/A
Clouds:N/A
Expected CloudBase > 3,600 ft AGL from Temp-Dew spread
CeilingNone
Temp25°C (ISA +11)
Dew Point16°C (57% RH)
QNH1022 hPa
Density Alt1,657 ft
Elevation453 ft
Report Wrong Elevation
Raw Report
KRKR 241701Z AUTO 36003KT 10SM CLR 25/16 A3019 RMK AO2=

Extra information for KRKR:More info

Metar Taf Metar & Taf Last 4 Metars F.Rules Stats Wind Profile Meteogram Temp Stats Airport Information Weather charts Add Link Nearby VenuesMetar ALERT Operation Metar Decoded Social comments

AIRNAV info for KRKR